createdAt,value
2019-04-28T00:01:41.377Z,100850.25
2019-04-28T00:04:11.598Z,100852.84
2019-04-28T00:06:42.352Z,100855.84
2019-04-28T00:09:13.362Z,100846.31
2019-04-28T00:11:43.471Z,100847.09
2019-04-28T00:14:13.662Z,100846.23
2019-04-28T00:16:43.804Z,100846.31
2019-04-28T00:19:13.875Z,100855.09
2019-04-28T00:21:58.878Z,100855.98
2019-04-28T00:24:51.512Z,100858.36
2019-04-28T00:27:21.738Z,100860.24
2019-04-28T00:29:52.905Z,100860.80
2019-04-28T00:32:23.125Z,100862.02
2019-04-28T00:34:53.184Z,100870.77
2019-04-28T00:37:34.861Z,100865.11
2019-04-28T00:40:07.242Z,100864.33
2019-04-28T00:42:37.360Z,100866.49
2019-04-28T00:45:09.230Z,100867.42
2019-04-28T00:47:40.834Z,100869.26
2019-04-28T00:50:11.776Z,100871.46
2019-04-28T00:52:42.016Z,100869.05
2019-04-28T00:55:12.168Z,100871.22
2019-04-28T00:57:42.426Z,100876.55
2019-04-28T01:00:13.591Z,100878.00
2019-04-28T01:02:44.145Z,100874.38
2019-04-28T01:05:14.552Z,100873.56
2019-04-28T01:07:44.656Z,100876.30
2019-04-28T01:10:15.118Z,100878.89
2019-04-28T01:12:46.744Z,100872.34
2019-04-28T01:15:39.529Z,100876.26
2019-04-28T01:18:16.248Z,100874.52
2019-04-28T01:20:46.307Z,100869.75
2019-04-28T01:23:16.382Z,100870.67
2019-04-28T01:25:50.064Z,100874.62
2019-04-28T01:28:21.344Z,100874.62
2019-04-28T01:31:16.576Z,100872.88
2019-04-28T01:34:05.606Z,100879.91
2019-04-28T01:36:37.474Z,100880.33
2019-04-28T01:39:09.929Z,100880.80
2019-04-28T01:41:39.911Z,100889.56
2019-04-28T01:44:10.322Z,100890.85
2019-04-28T01:46:40.524Z,100891.19
2019-04-28T01:49:10.623Z,100893.35
2019-04-28T01:51:41.596Z,100903.14
2019-04-28T01:54:11.880Z,100897.52
2019-04-28T01:56:41.938Z,100900.20
2019-04-28T01:59:12.014Z,100902.90
2019-04-28T02:01:42.378Z,100903.63
2019-04-28T02:04:12.548Z,100901.92
2019-04-28T02:06:42.626Z,100897.55
2019-04-28T02:09:12.816Z,100908.92
2019-04-28T02:11:42.905Z,100906.72
2019-04-28T02:14:12.982Z,100909.86
2019-04-28T02:16:43.087Z,100913.38
2019-04-28T02:19:13.153Z,100910.66
2019-04-28T02:21:49.641Z,100908.89
2019-04-28T02:24:30.775Z,100911.00
2019-04-28T02:27:01.696Z,100910.57
2019-04-28T02:29:31.745Z,100907.11
2019-04-28T02:32:02.479Z,100917.63
2019-04-28T02:34:32.829Z,100917.69
2019-04-28T02:37:02.886Z,100916.44
2019-04-28T02:39:32.956Z,100919.92
2019-04-28T02:42:03.033Z,100919.55
2019-04-28T02:44:35.095Z,100918.61
2019-04-28T02:47:05.043Z,100922.98
2019-04-28T02:49:42.318Z,100922.18
2019-04-28T02:52:22.449Z,100921.35
2019-04-28T02:54:52.552Z,100923.06
2019-04-28T02:57:22.661Z,100927.81
2019-04-28T02:59:52.728Z,100930.06
2019-04-28T03:02:22.918Z,100936.61
2019-04-28T03:04:52.996Z,100935.69
2019-04-28T03:07:23.079Z,100936.21
2019-04-28T03:09:53.166Z,100932.27
2019-04-28T03:12:23.239Z,100942.78
2019-04-28T03:14:53.320Z,100939.38
2019-04-28T03:17:23.404Z,100939.72
2019-04-28T03:19:53.503Z,100943.75
2019-04-28T03:22:23.588Z,100944.18
2019-04-28T03:24:57.444Z,100940.23
2019-04-28T03:27:34.681Z,100941.26
2019-04-28T03:30:23.963Z,100942.52
2019-04-28T03:33:00.236Z,100948.13
2019-04-28T03:35:26.291Z,100956.05
2019-04-28T03:37:56.464Z,100947.77
2019-04-28T03:40:26.585Z,100949.55
2019-04-28T03:42:59.464Z,100952.17
2019-04-28T03:45:33.071Z,100956.52
2019-04-28T03:48:03.143Z,100957.34
2019-04-28T03:50:33.256Z,100951.23
2019-04-28T03:53:03.337Z,100965.23
2019-04-28T03:55:34.965Z,100963.05
2019-04-28T03:58:05.215Z,100961.27
2019-04-28T04:00:35.301Z,100962.63
2019-04-28T04:03:05.361Z,100963.56
2019-04-28T04:05:35.466Z,100966.11
2019-04-28T04:08:05.547Z,100964.88
2019-04-28T04:10:50.155Z,100960.94
2019-04-28T04:13:33.000Z,100962.73
2019-04-28T04:16:20.903Z,100964.47
2019-04-28T04:18:53.620Z,100960.94
2019-04-28T04:21:24.193Z,100961.84
2019-04-28T04:23:54.279Z,100964.88
2019-04-28T04:26:24.355Z,100965.26
2019-04-28T04:28:54.429Z,100966.56
2019-04-28T04:31:24.493Z,100972.25
2019-04-28T04:33:54.580Z,100973.14
2019-04-28T04:36:24.658Z,100974.91
2019-04-28T04:38:54.728Z,100975.31
2019-04-28T04:41:24.850Z,100977.62
2019-04-28T04:43:54.922Z,100974.88
2019-04-28T04:46:25.897Z,100981.02
2019-04-28T04:48:56.013Z,100975.34
2019-04-28T04:51:26.082Z,100980.24
2019-04-28T04:53:56.151Z,100981.09
2019-04-28T04:56:26.336Z,100984.98
2019-04-28T04:58:56.589Z,100989.31
2019-04-28T05:01:35.546Z,100991.48
2019-04-28T05:04:14.709Z,100990.67
2019-04-28T05:06:44.769Z,100993.41
2019-04-28T05:09:14.878Z,101000.78
2019-04-28T05:11:44.961Z,101007.30
2019-04-28T05:14:15.062Z,101014.32
2019-04-28T05:16:45.135Z,101020.52
2019-04-28T05:19:15.233Z,101021.06
2019-04-28T05:21:45.275Z,101022.20
2019-04-28T05:24:40.423Z,101023.14
2019-04-28T05:27:10.508Z,101028.84
2019-04-28T05:29:40.607Z,101034.61
2019-04-28T05:32:10.896Z,101033.67
2019-04-28T05:34:46.725Z,101032.27
2019-04-28T05:37:12.926Z,101038.72
2019-04-28T05:39:43.054Z,101040.98
2019-04-28T05:42:13.149Z,101038.38
2019-04-28T05:44:43.240Z,101041.53
2019-04-28T05:47:13.287Z,101041.39
2019-04-28T05:50:07.252Z,101044.45
2019-04-28T05:53:00.564Z,101047.53
2019-04-28T05:56:02.295Z,101046.63
2019-04-28T05:58:37.808Z,101050.61
2019-04-28T06:01:21.888Z,101050.28
2019-04-28T06:03:51.966Z,101050.66
2019-04-28T06:06:24.221Z,101052.42
2019-04-28T06:09:16.108Z,101059.52
2019-04-28T06:11:46.185Z,101061.78
2019-04-28T06:14:16.234Z,101063.92
2019-04-28T06:16:46.338Z,101068.67
2019-04-28T06:19:16.430Z,101070.80
2019-04-28T06:21:46.500Z,101070.90
2019-04-28T06:24:16.561Z,101070.96
2019-04-28T06:26:46.666Z,101085.39
2019-04-28T06:29:17.065Z,101086.66
2019-04-28T06:31:47.188Z,101087.95
2019-04-28T06:34:17.241Z,101093.16
2019-04-28T06:36:47.369Z,101089.65
2019-04-28T06:39:17.448Z,101091.37
2019-04-28T06:41:47.546Z,101096.35
2019-04-28T06:44:17.592Z,101101.91
2019-04-28T06:46:47.691Z,101103.67
2019-04-28T06:49:17.762Z,101101.95
2019-04-28T06:51:47.846Z,101110.67
2019-04-28T06:54:17.905Z,101113.27
2019-04-28T06:56:48.032Z,101111.50
2019-04-28T06:59:18.139Z,101118.47
2019-04-28T07:01:48.246Z,101114.08
2019-04-28T07:04:18.350Z,101108.73
2019-04-28T07:06:48.471Z,101106.91
2019-04-28T07:09:18.590Z,101108.19
2019-04-28T07:11:48.657Z,101110.34
2019-04-28T07:14:18.757Z,101111.80
2019-04-28T07:16:48.919Z,101120.09
2019-04-28T07:19:18.977Z,101133.20
2019-04-28T07:22:12.001Z,101138.60
2019-04-28T07:24:44.785Z,101142.98
2019-04-28T07:27:14.025Z,101152.17
2019-04-28T07:29:44.131Z,101159.56
2019-04-28T07:32:14.307Z,101163.58
2019-04-28T07:34:44.410Z,101165.78
2019-04-28T07:37:14.492Z,101168.89
2019-04-28T07:39:44.613Z,101169.23
2019-04-28T07:42:14.707Z,101171.83
2019-04-28T07:44:44.865Z,101167.05
2019-04-28T07:47:14.998Z,101173.05
2019-04-28T07:49:45.071Z,101172.52
2019-04-28T07:52:24.540Z,101177.56
2019-04-28T07:54:54.696Z,101170.38
2019-04-28T07:57:24.934Z,101174.27
2019-04-28T07:59:55.015Z,101173.04
2019-04-28T08:02:25.438Z,101170.62
2019-04-28T08:04:55.540Z,101179.28
2019-04-28T08:07:25.767Z,101173.59
2019-04-28T08:09:55.867Z,101179.09
2019-04-28T08:12:25.992Z,101186.59
2019-04-28T08:14:56.094Z,101191.12
2019-04-28T08:17:26.201Z,101200.76
2019-04-28T08:19:56.299Z,101215.66
2019-04-28T08:22:26.414Z,101227.48
2019-04-28T08:24:56.483Z,101237.62
2019-04-28T08:27:26.631Z,101242.02
2019-04-28T08:29:58.715Z,101241.62
2019-04-28T08:32:47.654Z,101249.45
2019-04-28T08:35:17.772Z,101248.13
2019-04-28T08:37:47.835Z,101244.17
2019-04-28T08:40:17.977Z,101238.45
2019-04-28T08:42:48.066Z,101235.16
2019-04-28T08:45:18.205Z,101241.23
2019-04-28T08:47:48.352Z,101245.66
2019-04-28T08:50:18.475Z,101254.86
2019-04-28T08:52:48.562Z,101261.02
2019-04-28T08:55:18.638Z,101270.38
2019-04-28T08:57:48.772Z,101272.94
2019-04-28T09:00:18.981Z,101278.25
2019-04-28T09:02:49.130Z,101277.41
2019-04-28T09:05:19.237Z,101285.23
2019-04-28T09:07:49.356Z,101285.63
2019-04-28T09:10:19.481Z,101288.24
2019-04-28T09:12:49.594Z,101298.25
2019-04-28T09:15:19.695Z,101296.89
2019-04-28T09:17:49.841Z,101302.17
2019-04-28T09:20:20.198Z,101301.30
2019-04-28T09:22:50.274Z,101292.39
2019-04-28T09:25:20.403Z,101292.91
2019-04-28T09:27:50.521Z,101295.94
2019-04-28T09:30:22.382Z,101294.95
2019-04-28T09:32:52.514Z,101293.94
2019-04-28T09:35:22.664Z,101291.91
2019-04-28T09:37:55.265Z,101296.31
2019-04-28T09:40:25.383Z,101302.13
2019-04-28T09:43:01.279Z,101316.30
2019-04-28T09:45:37.773Z,101327.34
2019-04-28T09:48:07.871Z,101324.55
2019-04-28T09:50:38.068Z,101328.56
2019-04-28T09:53:08.154Z,101333.53
2019-04-28T09:55:40.669Z,101329.94
2019-04-28T09:58:11.060Z,101329.80
2019-04-28T10:00:42.762Z,101337.05
2019-04-28T10:03:12.856Z,101335.35
2019-04-28T10:05:43.019Z,101334.92
2019-04-28T10:08:13.159Z,101333.09
2019-04-28T10:10:43.298Z,101334.48
2019-04-28T10:13:13.499Z,101338.58
2019-04-28T10:15:43.582Z,101343.92
2019-04-28T10:18:13.704Z,101348.79
2019-04-28T10:20:43.841Z,101346.56
2019-04-28T10:23:13.946Z,101345.75
2019-04-28T10:25:44.246Z,101342.16
2019-04-28T10:28:14.417Z,101343.50
2019-04-28T10:30:44.546Z,101344.25
2019-04-28T10:33:14.694Z,101348.27
2019-04-28T10:35:47.387Z,101347.58
2019-04-28T10:38:17.504Z,101350.23
2019-04-28T10:40:56.732Z,101360.83
2019-04-28T10:43:29.942Z,101358.25
2019-04-28T10:46:00.298Z,101363.17
2019-04-28T10:48:30.501Z,101368.77
2019-04-28T10:51:01.316Z,101378.53
2019-04-28T10:53:31.517Z,101375.89
2019-04-28T10:56:01.654Z,101385.52
2019-04-28T10:58:31.717Z,101384.60
2019-04-28T11:01:01.894Z,101389.66
2019-04-28T11:03:32.013Z,101390.46
2019-04-28T11:06:02.193Z,101386.42
2019-04-28T11:09:03.508Z,101393.72
2019-04-28T11:11:33.725Z,101393.63
2019-04-28T11:14:03.882Z,101397.00
2019-04-28T11:16:36.931Z,101403.20
2019-04-28T11:19:07.395Z,101397.84
2019-04-28T11:21:37.523Z,101395.34
2019-04-28T11:24:07.726Z,101388.95
2019-04-28T11:26:37.948Z,101401.36
2019-04-28T11:29:08.212Z,101400.20
2019-04-28T11:31:38.291Z,101406.42
2019-04-28T11:34:33.422Z,101402.93
2019-04-28T11:37:03.756Z,101411.23
2019-04-28T11:39:36.486Z,101423.23
2019-04-28T11:42:06.650Z,101415.50
2019-04-28T11:44:36.754Z,101414.27
2019-04-28T11:47:09.715Z,101411.88
2019-04-28T11:49:39.826Z,101403.98
2019-04-28T11:52:10.138Z,101415.69
2019-04-28T11:54:40.274Z,101416.08
2019-04-28T11:57:10.368Z,101426.84
2019-04-28T11:59:41.939Z,101422.52
2019-04-28T12:02:12.049Z,101418.21
2019-04-28T12:04:42.213Z,101420.30
2019-04-28T12:07:12.445Z,101419.73
2019-04-28T12:10:03.726Z,101415.11
2019-04-28T12:12:33.016Z,101413.13
2019-04-28T12:15:22.049Z,101419.77
2019-04-28T12:18:10.011Z,101415.81
2019-04-28T12:20:40.548Z,101423.31
2019-04-28T12:23:10.644Z,101418.61
2019-04-28T12:25:40.916Z,101417.85
2019-04-28T12:28:11.020Z,101417.22
2019-04-28T12:30:41.172Z,101421.22
2019-04-28T12:33:12.986Z,101417.52
2019-04-28T12:35:48.097Z,101419.41
2019-04-28T12:38:15.231Z,101418.00
2019-04-28T12:40:45.400Z,101426.90
2019-04-28T12:43:15.495Z,101429.70
2019-04-28T12:45:45.625Z,101436.22
2019-04-28T12:48:15.757Z,101431.98
2019-04-28T12:50:50.586Z,101434.84
2019-04-28T12:53:20.909Z,101438.33
2019-04-28T12:55:51.083Z,101433.44
2019-04-28T12:58:21.194Z,101438.09
2019-04-28T13:01:07.502Z,101438.77
2019-04-28T13:03:42.015Z,101446.27
2019-04-28T13:06:14.740Z,101440.98
2019-04-28T13:08:44.848Z,101447.98
2019-04-28T13:11:14.949Z,101452.33
2019-04-28T13:13:46.891Z,101453.12
2019-04-28T13:16:16.924Z,101458.50
2019-04-28T13:18:47.048Z,101458.77
2019-04-28T13:21:17.185Z,101464.13
2019-04-28T13:23:47.360Z,101469.25
2019-04-28T13:26:17.556Z,101466.64
2019-04-28T13:28:47.726Z,101468.86
2019-04-28T13:31:17.847Z,101469.04
2019-04-28T13:33:56.472Z,101479.86
2019-04-28T13:36:19.982Z,101472.52
2019-04-28T13:38:50.119Z,101476.98
2019-04-28T13:41:22.425Z,101480.58
2019-04-28T13:43:53.226Z,101479.95
2019-04-28T13:46:24.401Z,101486.55
2019-04-28T13:48:58.082Z,101485.51
2019-04-28T13:51:28.278Z,101490.04
2019-04-28T13:54:00.046Z,101484.55
2019-04-28T13:56:32.392Z,101487.30
2019-04-28T13:59:21.126Z,101485.22
2019-04-28T14:02:01.536Z,101491.11
2019-04-28T14:04:47.426Z,101486.37
2019-04-28T14:07:18.511Z,101486.73
2019-04-28T14:09:50.089Z,101490.86
2019-04-28T14:12:21.176Z,101483.52
2019-04-28T14:14:51.751Z,101484.45
2019-04-28T14:17:22.535Z,101484.59
2019-04-28T14:19:52.638Z,101491.12
2019-04-28T14:22:23.240Z,101489.39
2019-04-28T14:24:53.701Z,101486.81
2019-04-28T14:27:24.043Z,101490.25
2019-04-28T14:29:54.268Z,101492.72
2019-04-28T14:32:24.379Z,101495.22
2019-04-28T14:34:54.667Z,101496.29
2019-04-28T14:37:24.885Z,101495.69
2019-04-28T14:39:55.809Z,101497.17
2019-04-28T14:42:25.971Z,101497.44
2019-04-28T14:44:56.548Z,101491.11
2019-04-28T14:47:30.662Z,101495.58
2019-04-28T14:50:02.908Z,101507.51
2019-04-28T14:52:33.737Z,101502.64
2019-04-28T14:55:03.983Z,101506.33
2019-04-28T14:57:34.124Z,101505.34
2019-04-28T15:00:04.757Z,101505.21
2019-04-28T15:02:42.560Z,101505.53
2019-04-28T15:05:39.303Z,101510.22
2019-04-28T15:08:41.515Z,101503.71
2019-04-28T15:11:17.907Z,101510.95
2019-04-28T15:13:48.182Z,101508.40
2019-04-28T15:16:18.683Z,101512.56
2019-04-28T15:18:48.819Z,101513.52
2019-04-28T15:21:19.284Z,101514.66
2019-04-28T15:23:52.400Z,101510.68
2019-04-28T15:26:22.914Z,101515.23
2019-04-28T15:28:53.588Z,101522.83
2019-04-28T15:31:23.846Z,101516.62
2019-04-28T15:33:54.180Z,101517.71
2019-04-28T15:36:24.853Z,101524.19
2019-04-28T15:38:54.990Z,101522.02
2019-04-28T15:41:25.416Z,101518.91
2019-04-28T15:43:55.714Z,101521.61
2019-04-28T15:46:25.936Z,101529.89
2019-04-28T15:48:56.386Z,101524.23
2019-04-28T15:51:30.594Z,101519.56
2019-04-28T15:54:01.016Z,101525.04
2019-04-28T15:57:02.462Z,101522.94
2019-04-28T15:59:36.491Z,101531.80
2019-04-28T16:02:07.092Z,101528.78
2019-04-28T16:04:38.572Z,101534.45
2019-04-28T16:07:08.710Z,101532.65
2019-04-28T16:09:41.030Z,101539.32
2019-04-28T16:12:11.044Z,101535.37
2019-04-28T16:14:41.413Z,101531.61
2019-04-28T16:17:11.539Z,101537.09
2019-04-28T16:19:41.796Z,101537.44
2019-04-28T16:22:12.573Z,101537.39
2019-04-28T16:24:44.794Z,101539.28
2019-04-28T16:27:15.442Z,101540.27
2019-04-28T16:29:45.692Z,101539.42
2019-04-28T16:32:15.811Z,101542.21
2019-04-28T16:34:45.962Z,101540.39
2019-04-28T16:37:16.117Z,101541.96
2019-04-28T16:39:46.208Z,101551.62
2019-04-28T16:42:31.217Z,101542.21
2019-04-28T16:45:22.265Z,101546.93
2019-04-28T16:47:52.464Z,101550.43
2019-04-28T16:50:22.554Z,101545.46
2019-04-28T16:52:52.704Z,101546.39
2019-04-28T16:55:27.289Z,101547.69
2019-04-28T16:58:34.802Z,101552.45
2019-04-28T17:01:20.267Z,101551.19
2019-04-28T17:03:50.398Z,101557.03
2019-04-28T17:06:20.535Z,101555.84
2019-04-28T17:08:50.672Z,101556.45
2019-04-28T17:11:20.870Z,101561.14
2019-04-28T17:13:51.079Z,101562.75
2019-04-28T17:16:21.254Z,101560.39
2019-04-28T17:18:51.405Z,101564.17
2019-04-28T17:21:21.627Z,101566.27
2019-04-28T17:23:51.783Z,101570.84
2019-04-28T17:26:21.901Z,101574.59
2019-04-28T17:28:52.126Z,101574.12
2019-04-28T17:31:22.285Z,101578.64
2019-04-28T17:33:52.466Z,101584.23
2019-04-28T17:36:22.770Z,101590.34
2019-04-28T17:38:53.028Z,101588.06
2019-04-28T17:41:26.822Z,101591.56
2019-04-28T17:43:56.976Z,101593.35
2019-04-28T17:46:27.121Z,101590.01
2019-04-28T17:48:58.723Z,101599.65
2019-04-28T17:51:29.091Z,101600.42
2019-04-28T17:53:59.658Z,101597.31
2019-04-28T17:56:29.852Z,101603.69
2019-04-28T17:59:00.089Z,101602.31
2019-04-28T18:01:58.616Z,101595.13
2019-04-28T18:04:39.773Z,101604.08
2019-04-28T18:07:14.046Z,101604.80
2019-04-28T18:09:44.319Z,101607.99
2019-04-28T18:12:14.465Z,101607.70
2019-04-28T18:14:46.481Z,101610.81
2019-04-28T18:17:44.892Z,101607.47
2019-04-28T18:20:15.211Z,101615.94
2019-04-28T18:22:45.339Z,101619.08
2019-04-28T18:25:15.571Z,101619.98
2019-04-28T18:27:45.786Z,101622.73
2019-04-28T18:30:17.854Z,101624.50
2019-04-28T18:33:00.228Z,101626.37
2019-04-28T18:35:38.386Z,101626.08
2019-04-28T18:38:14.866Z,101630.98
2019-04-28T18:41:09.907Z,101628.39
2019-04-28T18:43:59.609Z,101629.33
2019-04-28T18:46:31.107Z,101637.36
2019-04-28T18:49:01.490Z,101643.16
2019-04-28T18:51:31.823Z,101647.55
2019-04-28T18:54:04.374Z,101650.31
2019-04-28T18:56:34.749Z,101650.77
2019-04-28T18:59:06.529Z,101658.76
2019-04-28T19:01:54.748Z,101656.56
2019-04-28T19:04:25.098Z,101667.16
2019-04-28T19:07:04.812Z,101666.70
2019-04-28T19:09:59.283Z,101671.03
2019-04-28T19:12:42.861Z,101678.08
2019-04-28T19:15:37.881Z,101672.00
2019-04-28T19:18:12.635Z,101669.81
2019-04-28T19:20:48.845Z,101678.63
2019-04-28T19:23:19.177Z,101676.89
2019-04-28T19:25:49.555Z,101679.09
2019-04-28T19:28:23.333Z,101680.00
2019-04-28T19:30:54.099Z,101679.59
2019-04-28T19:33:24.525Z,101682.68
2019-04-28T19:35:55.040Z,101684.42
2019-04-28T19:38:25.463Z,101688.38
2019-04-28T19:40:55.998Z,101683.55
2019-04-28T19:43:26.467Z,101687.97
2019-04-28T19:45:58.566Z,101688.86
2019-04-28T19:48:29.333Z,101685.80
2019-04-28T19:50:59.990Z,101687.99
2019-04-28T19:53:31.920Z,101683.19
2019-04-28T19:56:14.585Z,101690.63
2019-04-28T19:58:56.645Z,101690.64
2019-04-28T20:01:29.145Z,101691.93
2019-04-28T20:04:00.056Z,101695.02
2019-04-28T20:06:31.924Z,101690.19
2019-04-28T20:09:05.450Z,101688.00
2019-04-28T20:11:35.872Z,101702.02
2019-04-28T20:14:06.104Z,101707.70
2019-04-28T20:16:36.433Z,101712.10
2019-04-28T20:19:06.688Z,101711.63
2019-04-28T20:21:36.966Z,101720.83
2019-04-28T20:24:09.772Z,101719.52
2019-04-28T20:26:41.088Z,101714.72
2019-04-28T20:29:11.347Z,101721.25
2019-04-28T20:31:41.517Z,101722.14
2019-04-28T20:34:14.755Z,101727.34
2019-04-28T20:36:59.299Z,101728.65
2019-04-28T20:39:31.284Z,101723.82
2019-04-28T20:42:19.131Z,101722.06
2019-04-28T20:44:49.574Z,101728.22
2019-04-28T20:47:19.700Z,101727.73
2019-04-28T20:49:49.822Z,101733.41
2019-04-28T20:52:19.941Z,101735.61
2019-04-28T20:54:50.052Z,101735.20
2019-04-28T20:57:20.145Z,101740.44
2019-04-28T20:59:50.282Z,101740.38
2019-04-28T21:02:20.394Z,101743.03
2019-04-28T21:04:50.498Z,101736.85
2019-04-28T21:07:20.658Z,101751.79
2019-04-28T21:09:50.747Z,101750.94
2019-04-28T21:12:20.851Z,101756.63
2019-04-28T21:14:51.029Z,101757.91
2019-04-28T21:17:21.154Z,101765.83
2019-04-28T21:19:51.270Z,101771.91
2019-04-28T21:22:21.355Z,101773.23
2019-04-28T21:24:51.533Z,101763.96
2019-04-28T21:27:21.604Z,101766.54
2019-04-28T21:29:51.842Z,101767.83
2019-04-28T21:32:21.903Z,101773.07
2019-04-28T21:34:52.073Z,101769.95
2019-04-28T21:37:22.179Z,101772.56
2019-04-28T21:39:52.333Z,101776.92
2019-04-28T21:42:24.509Z,101776.89
2019-04-28T21:45:13.606Z,101776.83
2019-04-28T21:47:43.687Z,101776.34
2019-04-28T21:50:13.774Z,101772.86
2019-04-28T21:52:43.872Z,101775.03
2019-04-28T21:55:14.006Z,101767.61
2019-04-28T21:57:47.025Z,101770.72
2019-04-28T22:00:18.108Z,101778.17
2019-04-28T22:02:48.182Z,101777.72
2019-04-28T22:05:29.913Z,101776.34
2019-04-28T22:07:50.051Z,101775.38
2019-04-28T22:10:20.141Z,101774.00
2019-04-28T22:12:50.227Z,101782.34
2019-04-28T22:15:20.303Z,101785.38
2019-04-28T22:17:50.438Z,101776.62
2019-04-28T22:20:20.493Z,101784.03
2019-04-28T22:22:50.620Z,101776.63
2019-04-28T22:25:22.605Z,101778.45
2019-04-28T22:27:52.688Z,101784.48
2019-04-28T22:30:22.779Z,101782.80
2019-04-28T22:32:52.881Z,101781.04
2019-04-28T22:35:22.957Z,101779.73
2019-04-28T22:37:53.018Z,101778.83
2019-04-28T22:40:23.130Z,101787.14
2019-04-28T22:42:53.221Z,101781.91
2019-04-28T22:45:23.315Z,101782.31
2019-04-28T22:47:53.370Z,101785.38
2019-04-28T22:50:38.090Z,101787.56
2019-04-28T22:53:08.157Z,101777.07
2019-04-28T22:55:43.775Z,101773.20
2019-04-28T22:58:28.730Z,101774.52
2019-04-28T23:01:02.910Z,101776.77
2019-04-28T23:03:38.602Z,101769.31
2019-04-28T23:06:10.456Z,101768.83
2019-04-28T23:08:40.478Z,101775.86
2019-04-28T23:11:10.580Z,101775.45
2019-04-28T23:13:40.643Z,101773.24
2019-04-28T23:16:10.759Z,101781.97
2019-04-28T23:18:40.798Z,101775.38
2019-04-28T23:21:29.067Z,101772.86
2019-04-28T23:23:59.134Z,101780.28
2019-04-28T23:26:29.341Z,101777.14
2019-04-28T23:28:59.470Z,101782.42
2019-04-28T23:31:29.558Z,101788.14
2019-04-28T23:33:59.651Z,101792.53
2019-04-28T23:36:29.744Z,101790.73
2019-04-28T23:38:59.838Z,101796.73
2019-04-28T23:41:35.857Z,101799.80
2019-04-28T23:44:06.166Z,101809.80
2019-04-28T23:46:53.948Z,101808.45
2019-04-28T23:49:24.228Z,101808.04
2019-04-28T23:52:13.293Z,101813.28
2019-04-28T23:54:44.828Z,101815.05
2019-04-28T23:57:14.941Z,101815.01
2019-04-28T23:59:45.299Z,101808.04
